createdAt,value
2018-08-18T00:00:28.083Z,15.90
2018-08-18T00:03:52.517Z,15.80
2018-08-18T00:07:17.212Z,15.70
2018-08-18T00:10:41.855Z,15.70
2018-08-18T00:14:07.356Z,15.60
2018-08-18T00:17:31.824Z,15.60
2018-08-18T00:20:56.279Z,15.50
2018-08-18T00:24:21.783Z,15.50
2018-08-18T00:27:46.306Z,15.50
2018-08-18T00:31:10.721Z,15.30
2018-08-18T00:34:40.125Z,15.30
2018-08-18T00:38:04.629Z,15.20
2018-08-18T00:41:31.017Z,15.20
2018-08-18T00:44:55.641Z,15.20
2018-08-18T00:48:20.068Z,15.10
2018-08-18T00:51:45.093Z,15.20
2018-08-18T00:55:09.787Z,15.20
2018-08-18T00:58:34.309Z,15.30
2018-08-18T01:01:58.995Z,15.30
2018-08-18T01:05:23.603Z,15.30
2018-08-18T01:08:48.830Z,15.30
2018-08-18T01:12:13.692Z,15.20
2018-08-18T01:15:38.707Z,15.20
2018-08-18T01:19:03.100Z,15.20
2018-08-18T01:22:27.535Z,15.20
2018-08-18T01:25:51.971Z,15.30
2018-08-18T01:29:17.833Z,15.40
2018-08-18T01:32:42.239Z,15.40
2018-08-18T01:36:06.844Z,15.50
2018-08-18T01:39:31.269Z,15.50
2018-08-18T01:42:55.711Z,15.50
2018-08-18T01:46:20.179Z,15.40
2018-08-18T01:49:44.619Z,15.40
2018-08-18T01:53:09.039Z,15.30
2018-08-18T01:56:33.418Z,15.20
2018-08-18T01:59:57.877Z,15.10
2018-08-18T02:03:22.308Z,15.00
2018-08-18T02:06:46.767Z,14.90
2018-08-18T02:10:11.186Z,14.90
2018-08-18T02:13:35.606Z,14.80
2018-08-18T02:17:30.562Z,14.60
2018-08-18T02:20:54.972Z,14.60
2018-08-18T02:24:19.381Z,14.50
2018-08-18T02:27:43.751Z,14.40
2018-08-18T02:31:08.184Z,14.30
2018-08-18T02:34:32.584Z,14.20
2018-08-18T02:37:56.984Z,14.10
2018-08-18T02:41:21.393Z,14.00
2018-08-18T02:44:45.839Z,13.90
2018-08-18T02:48:16.345Z,13.90
2018-08-18T02:51:40.760Z,13.80
2018-08-18T02:55:07.595Z,13.80
2018-08-18T02:58:32.006Z,13.70
2018-08-18T03:01:56.424Z,13.70
2018-08-18T03:05:20.870Z,13.60
2018-08-18T03:08:45.283Z,13.60
2018-08-18T03:12:10.024Z,13.50
2018-08-18T03:15:57.943Z,13.50
2018-08-18T03:19:22.399Z,13.50
2018-08-18T03:22:47.656Z,13.60
2018-08-18T03:26:12.096Z,13.70
2018-08-18T03:29:42.551Z,13.80
2018-08-18T03:33:07.100Z,13.70
2018-08-18T03:36:36.133Z,13.70
2018-08-18T03:40:00.585Z,13.70
2018-08-18T03:43:25.029Z,13.70
2018-08-18T03:46:49.477Z,13.80
2018-08-18T03:50:13.916Z,13.80
2018-08-18T03:53:38.340Z,13.80
2018-08-18T03:57:02.763Z,13.70
2018-08-18T04:00:27.180Z,13.70
2018-08-18T04:03:51.603Z,13.70
2018-08-18T04:07:16.065Z,13.70
2018-08-18T04:10:40.515Z,13.70
2018-08-18T04:14:04.945Z,13.70
2018-08-18T04:17:31.526Z,13.70
2018-08-18T04:20:55.896Z,13.60
2018-08-18T04:24:20.368Z,13.60
2018-08-18T04:27:48.101Z,13.50
2018-08-18T04:31:12.697Z,13.50
2018-08-18T04:34:37.121Z,13.40
2018-08-18T04:38:04.274Z,13.40
2018-08-18T04:41:28.863Z,13.30
2018-08-18T04:44:53.245Z,13.30
2018-08-18T04:48:30.793Z,13.30
2018-08-18T04:51:55.220Z,13.30
2018-08-18T04:55:19.838Z,13.30
2018-08-18T04:58:44.229Z,13.30
2018-08-18T05:02:08.647Z,13.30
2018-08-18T05:05:33.205Z,13.40
2018-08-18T05:08:59.069Z,13.30
2018-08-18T05:12:23.509Z,13.40
2018-08-18T05:15:47.921Z,13.40
2018-08-18T05:19:12.356Z,13.50
2018-08-18T05:22:36.737Z,13.50
2018-08-18T05:26:01.174Z,13.60
2018-08-18T05:29:25.576Z,13.70
2018-08-18T05:32:50.004Z,13.80
2018-08-18T05:36:14.443Z,13.90
2018-08-18T05:39:38.848Z,14.00
2018-08-18T05:43:03.907Z,14.10
2018-08-18T05:46:28.399Z,14.20
2018-08-18T05:49:54.835Z,14.30
2018-08-18T05:53:24.283Z,14.30
2018-08-18T05:56:48.752Z,14.40
2018-08-18T06:00:18.323Z,14.50
2018-08-18T06:03:42.805Z,14.60
2018-08-18T06:07:07.263Z,14.70
2018-08-18T06:10:31.702Z,14.80
2018-08-18T06:13:56.123Z,14.90
2018-08-18T06:17:25.697Z,15.00
2018-08-18T06:20:50.129Z,15.10
2018-08-18T06:24:14.572Z,15.20
2018-08-18T06:27:39.021Z,15.30
2018-08-18T06:31:03.633Z,15.40
2018-08-18T06:34:30.773Z,15.50
2018-08-18T06:38:01.766Z,15.60
2018-08-18T06:41:26.311Z,15.70
2018-08-18T06:44:50.657Z,15.80
2018-08-18T06:48:20.768Z,15.90
2018-08-18T06:51:45.275Z,16.00
2018-08-18T06:55:14.754Z,16.10
2018-08-18T06:58:39.091Z,16.20
2018-08-18T07:02:03.550Z,16.30
2018-08-18T07:05:28.017Z,16.30
2018-08-18T07:08:53.834Z,16.40
2018-08-18T07:12:18.262Z,16.50
2018-08-18T07:15:44.219Z,16.60
2018-08-18T07:19:08.699Z,16.70
2018-08-18T07:22:33.086Z,16.80
2018-08-18T07:25:59.613Z,17.00
2018-08-18T07:29:24.075Z,17.10
2018-08-18T07:32:48.454Z,17.20
2018-08-18T07:36:12.876Z,17.30
2018-08-18T07:39:37.318Z,17.40
2018-08-18T07:43:06.231Z,17.50
2018-08-18T07:46:30.759Z,17.60
2018-08-18T07:49:55.044Z,17.70
2018-08-18T07:53:19.611Z,17.70
2018-08-18T07:56:43.890Z,17.90
2018-08-18T08:00:08.496Z,17.90
2018-08-18T08:03:33.084Z,18.00
2018-08-18T08:06:57.555Z,18.10
2018-08-18T08:10:21.994Z,18.20
2018-08-18T08:13:46.437Z,18.40
2018-08-18T08:17:11.770Z,18.50
2018-08-18T08:20:36.156Z,18.60
2018-08-18T08:24:00.656Z,18.70
2018-08-18T08:27:25.076Z,18.80
2018-08-18T08:30:49.500Z,18.80
2018-08-18T08:34:13.946Z,19.00
2018-08-18T08:37:38.390Z,19.10
2018-08-18T08:41:02.842Z,19.20
2018-08-18T08:44:27.242Z,19.30
2018-08-18T08:47:51.751Z,19.40
2018-08-18T08:51:16.201Z,19.50
2018-08-18T08:54:41.214Z,19.50
2018-08-18T08:58:05.731Z,19.70
2018-08-18T09:01:30.134Z,19.70
2018-08-18T09:04:54.575Z,19.70
2018-08-18T09:08:18.974Z,19.80
2018-08-18T09:11:43.380Z,20.00
2018-08-18T09:15:09.620Z,20.20
2018-08-18T09:18:34.051Z,20.30
2018-08-18T09:22:01.767Z,20.50
2018-08-18T09:25:29.410Z,20.60
2018-08-18T09:28:53.842Z,20.70
2018-08-18T09:32:19.107Z,20.90
2018-08-18T09:36:03.628Z,21.10
2018-08-18T09:39:32.105Z,21.30
2018-08-18T09:42:56.732Z,21.50
2018-08-18T09:46:21.311Z,21.70
2018-08-18T09:49:45.763Z,21.80
2018-08-18T09:53:10.174Z,21.80
2018-08-18T09:56:34.599Z,22.10
2018-08-18T09:59:59.061Z,22.50
2018-08-18T10:03:23.460Z,22.70
2018-08-18T10:06:47.861Z,23.30
2018-08-18T10:10:13.959Z,23.50
2018-08-18T10:13:38.383Z,23.80
2018-08-18T10:17:02.997Z,23.60
2018-08-18T10:20:27.523Z,23.90
2018-08-18T10:23:52.016Z,24.60
2018-08-18T10:27:18.859Z,24.80
2018-08-18T10:30:43.277Z,24.50
2018-08-18T10:34:07.758Z,25.20
2018-08-18T10:37:32.169Z,26.50
2018-08-18T10:40:56.586Z,26.90
2018-08-18T10:44:21.018Z,26.70
2018-08-18T10:47:45.418Z,26.40
2018-08-18T10:52:23.878Z,27.30
2018-08-18T10:55:48.304Z,27.60
2018-08-18T10:59:20.631Z,28.40
2018-08-18T11:02:47.148Z,29.20
2018-08-18T11:06:11.650Z,28.70
2018-08-18T11:09:36.074Z,28.30
2018-08-18T11:13:00.581Z,29.00
2018-08-18T11:16:25.050Z,30.10
2018-08-18T11:19:49.458Z,31.10
2018-08-18T11:23:15.147Z,31.30
2018-08-18T11:26:40.989Z,31.10
2018-08-18T11:30:05.467Z,30.90
2018-08-18T11:33:39.233Z,31.50
2018-08-18T11:37:06.964Z,32.00
2018-08-18T11:40:31.404Z,32.50
2018-08-18T11:43:55.809Z,32.70
2018-08-18T11:47:20.282Z,31.90
2018-08-18T11:50:45.120Z,32.50
2018-08-18T11:54:09.618Z,32.00
2018-08-18T11:57:33.982Z,31.30
2018-08-18T12:00:59.790Z,31.30
2018-08-18T12:04:24.581Z,32.10
2018-08-18T12:07:51.991Z,32.90
2018-08-18T12:11:16.474Z,32.90
2018-08-18T12:14:40.886Z,32.80
2018-08-18T12:18:05.345Z,33.20
2018-08-18T12:21:34.031Z,33.00
2018-08-18T12:25:00.871Z,33.40
2018-08-18T12:28:48.918Z,33.50
2018-08-18T12:32:18.312Z,33.70
2018-08-18T12:35:42.919Z,34.10
2018-08-18T12:39:07.852Z,34.60
2018-08-18T12:42:32.314Z,34.90
2018-08-18T12:45:57.638Z,34.80
2018-08-18T12:49:22.080Z,34.80
2018-08-18T12:52:49.544Z,35.60
2018-08-18T12:56:17.376Z,36.10
2018-08-18T12:59:41.767Z,36.60
2018-08-18T13:03:06.169Z,36.40
2018-08-18T13:06:34.653Z,36.00
2018-08-18T13:10:17.969Z,36.50
2018-08-18T13:13:42.468Z,37.10
2018-08-18T13:17:07.029Z,37.90
2018-08-18T13:20:31.584Z,37.70
2018-08-18T13:23:56.048Z,38.10
2018-08-18T13:27:20.463Z,38.00
2018-08-18T13:30:44.985Z,37.50
2018-08-18T13:34:12.194Z,37.20
2018-08-18T13:37:36.687Z,37.20
2018-08-18T13:41:01.202Z,37.70
2018-08-18T13:44:30.858Z,38.10
2018-08-18T13:47:59.338Z,38.60
2018-08-18T13:51:24.185Z,38.90
2018-08-18T13:54:53.326Z,38.10
2018-08-18T13:58:17.820Z,38.20
2018-08-18T14:01:45.678Z,38.50
2018-08-18T14:05:20.939Z,39.40
2018-08-18T14:08:47.219Z,39.20
2018-08-18T14:12:15.478Z,40.20
2018-08-18T14:15:40.333Z,39.90
2018-08-18T14:19:04.736Z,40.00
2018-08-18T14:22:29.177Z,39.60
2018-08-18T14:25:53.751Z,38.60
2018-08-18T14:29:18.421Z,39.60
2018-08-18T14:32:42.876Z,39.90
2018-08-18T14:36:13.464Z,40.10
2018-08-18T14:39:40.764Z,40.40
2018-08-18T14:43:05.248Z,41.00
2018-08-18T14:46:29.743Z,41.00
2018-08-18T14:50:14.849Z,41.10
2018-08-18T14:53:43.284Z,40.80
2018-08-18T14:57:07.900Z,40.40
2018-08-18T15:00:32.800Z,40.70
2018-08-18T15:03:57.367Z,39.70
2018-08-18T15:07:21.773Z,38.80
2018-08-18T15:10:46.948Z,40.20
2018-08-18T15:14:11.526Z,41.00
2018-08-18T15:17:35.975Z,42.60
2018-08-18T15:21:00.477Z,41.90
2018-08-18T15:24:25.588Z,42.10
2018-08-18T15:27:50.043Z,42.70
2018-08-18T15:31:14.533Z,42.60
2018-08-18T15:34:38.985Z,41.50
2018-08-18T15:38:03.484Z,39.50
2018-08-18T15:41:27.868Z,38.40
2018-08-18T15:45:01.247Z,39.20
2018-08-18T15:48:26.059Z,39.40
2018-08-18T15:51:50.544Z,40.50
2018-08-18T15:55:14.952Z,41.60
2018-08-18T15:58:39.485Z,42.50
2018-08-18T16:02:03.940Z,41.40
2018-08-18T16:05:29.112Z,41.30
2018-08-18T16:08:54.269Z,40.20
2018-08-18T16:12:18.837Z,40.40
2018-08-18T16:15:43.344Z,39.50
2018-08-18T16:19:13.276Z,38.90
2018-08-18T16:22:37.731Z,38.60
2018-08-18T16:26:02.188Z,36.60
2018-08-18T16:29:26.633Z,34.00
2018-08-18T16:33:08.092Z,32.50
2018-08-18T16:36:37.697Z,31.70
2018-08-18T16:40:02.128Z,31.40
2018-08-18T16:43:26.587Z,31.60
2018-08-18T16:46:51.028Z,31.70
2018-08-18T16:50:15.560Z,31.40
2018-08-18T16:53:39.986Z,31.20
2018-08-18T16:57:04.364Z,30.80
2018-08-18T17:00:28.936Z,30.60
2018-08-18T17:03:53.542Z,30.30
2018-08-18T17:07:23.093Z,29.60
2018-08-18T17:10:47.588Z,28.90
2018-08-18T17:14:17.007Z,28.50
2018-08-18T17:17:41.473Z,28.20
2018-08-18T17:21:07.000Z,28.00
2018-08-18T17:24:31.731Z,28.00
2018-08-18T17:27:56.326Z,27.80
2018-08-18T17:31:20.780Z,27.50
2018-08-18T17:34:45.227Z,27.10
2018-08-18T17:38:09.750Z,26.70
2018-08-18T17:41:34.180Z,26.40
2018-08-18T17:44:59.992Z,26.30
2018-08-18T17:48:26.353Z,26.10
2018-08-18T17:52:22.086Z,25.90
2018-08-18T17:55:52.779Z,25.60
2018-08-18T17:59:17.895Z,25.30
2018-08-18T18:02:47.583Z,25.20
2018-08-18T18:06:13.092Z,25.00
2018-08-18T18:09:37.886Z,24.80
2018-08-18T18:13:05.632Z,24.50
2018-08-18T18:16:30.459Z,24.40
2018-08-18T18:19:57.492Z,24.20
2018-08-18T18:23:22.877Z,24.10
2018-08-18T18:26:50.490Z,23.90
2018-08-18T18:30:15.031Z,23.70
2018-08-18T18:33:39.798Z,23.60
2018-08-18T18:37:05.002Z,23.50
2018-08-18T18:40:33.833Z,23.30
2018-08-18T18:44:01.867Z,23.10
2018-08-18T18:47:26.436Z,23.00
2018-08-18T18:50:50.881Z,22.90
2018-08-18T18:54:15.352Z,22.80
2018-08-18T18:57:46.494Z,22.70
2018-08-18T19:01:11.003Z,22.50
2018-08-18T19:04:35.461Z,22.40
2018-08-18T19:08:12.951Z,22.30
2018-08-18T19:11:37.549Z,22.10
2018-08-18T19:15:01.995Z,22.00
2018-08-18T19:18:26.449Z,21.80
2018-08-18T19:21:51.298Z,21.80
2018-08-18T19:25:15.783Z,21.70
2018-08-18T19:28:40.346Z,21.60
2018-08-18T19:32:04.779Z,21.50
2018-08-18T19:35:34.254Z,21.50
2018-08-18T19:38:58.647Z,21.40
2018-08-18T19:42:23.088Z,21.30
2018-08-18T19:45:47.720Z,21.20
2018-08-18T19:49:12.247Z,21.20
2018-08-18T19:52:36.705Z,21.10
2018-08-18T19:56:02.032Z,21.00
2018-08-18T19:59:26.422Z,21.00
2018-08-18T20:03:12.645Z,20.90
2018-08-18T20:06:37.113Z,20.80
2018-08-18T20:10:01.666Z,20.70
2018-08-18T20:13:27.698Z,20.70
2018-08-18T20:16:52.189Z,20.60
2018-08-18T20:20:21.562Z,20.50
2018-08-18T20:23:46.061Z,20.40
2018-08-18T20:27:10.630Z,20.30
2018-08-18T20:30:35.063Z,20.20
2018-08-18T20:33:59.516Z,20.10
2018-08-18T20:37:23.942Z,20.00
2018-08-18T20:40:48.391Z,19.80
2018-08-18T20:44:12.836Z,19.80
2018-08-18T20:47:37.376Z,19.70
2018-08-18T20:51:01.854Z,19.60
2018-08-18T20:54:26.316Z,19.50
2018-08-18T20:57:50.747Z,19.50
2018-08-18T21:01:15.173Z,19.40
2018-08-18T21:04:41.619Z,19.40
2018-08-18T21:08:11.416Z,19.20
2018-08-18T21:11:35.858Z,19.20
2018-08-18T21:15:00.267Z,19.20
2018-08-18T21:18:24.676Z,19.10
2018-08-18T21:21:49.139Z,19.00
2018-08-18T21:25:14.362Z,18.90
2018-08-18T21:28:38.973Z,18.80
2018-08-18T21:32:03.383Z,18.80
2018-08-18T21:35:27.812Z,18.80
2018-08-18T21:38:52.375Z,18.70
2018-08-18T21:42:16.838Z,18.70
2018-08-18T21:49:33.283Z,18.60
2018-08-18T21:52:57.736Z,18.50
2018-08-18T21:56:22.150Z,18.50
2018-08-18T21:59:55.966Z,18.40
2018-08-18T22:03:20.392Z,18.40
2018-08-18T22:06:44.814Z,18.40
2018-08-18T22:10:10.751Z,18.30
2018-08-18T22:13:42.961Z,18.30
2018-08-18T22:17:07.638Z,18.20
2018-08-18T22:20:32.185Z,18.20
2018-08-18T22:23:58.643Z,18.10
2018-08-18T22:27:23.086Z,18.10
2018-08-18T22:30:47.538Z,18.10
2018-08-18T22:34:11.976Z,18.10
2018-08-18T22:37:36.420Z,18.00
2018-08-18T22:41:00.885Z,18.00
2018-08-18T22:44:25.414Z,18.00
2018-08-18T22:47:49.914Z,18.00
2018-08-18T22:51:14.334Z,17.90
2018-08-18T22:54:38.754Z,17.90
2018-08-18T22:58:03.265Z,17.80
2018-08-18T23:01:27.648Z,17.80
2018-08-18T23:04:52.059Z,17.70
2018-08-18T23:08:17.765Z,17.70
2018-08-18T23:11:42.175Z,17.70
2018-08-18T23:15:07.077Z,17.70
2018-08-18T23:18:31.516Z,17.60
2018-08-18T23:21:55.938Z,17.70
2018-08-18T23:25:20.390Z,17.70
2018-08-18T23:28:45.154Z,17.70
2018-08-18T23:32:16.364Z,17.60
2018-08-18T23:35:40.834Z,17.60
2018-08-18T23:39:06.521Z,17.60
2018-08-18T23:42:30.942Z,17.60
2018-08-18T23:45:55.511Z,17.70
2018-08-18T23:49:19.935Z,17.60
2018-08-18T23:52:56.671Z,17.60
2018-08-18T23:56:21.208Z,17.50
2018-08-18T23:59:46.192Z,17.50
